Time;durP1;ratioP1;P1;durP2;ratioP2;P2;SDS_P1;SDS_P2;PMS_P1;PMS_P2;Temp;Humidity;BMP_temperature;BMP_pressure;BME280_temperature;BME280_humidity;BME280_pressure;Samples;Min_cycle;Max_cycle;Signal;HPM_P1;HPM_P2
2024/01/25 04:02:42;;;;;;;34.28;5.75;;;5.40;99.90;;;;;;6275983;22;20079;-80
2024/01/25 04:05:07;;;;;;;46.30;6.18;;;5.40;99.90;;;;;;6250555;22;20027;-79
2024/01/25 04:07:33;;;;;;;40.28;5.68;;;5.30;99.90;;;;;;6251804;22;20022;-80
2024/01/25 04:09:59;;;;;;;46.63;6.15;;;5.30;99.90;;;;;;6278151;22;20071;-80
2024/01/25 04:12:25;;;;;;;46.33;6.57;;;5.30;99.90;;;;;;6278065;22;20007;-79
2024/01/25 04:14:50;;;;;;;46.47;5.95;;;5.30;99.90;;;;;;6250298;22;20018;-79
2024/01/25 04:17:16;;;;;;;36.28;6.40;;;5.30;99.90;;;;;;6250700;22;20015;-80
2024/01/25 04:19:41;;;;;;;46.80;6.88;;;5.30;99.90;;;;;;6250013;22;20012;-79
2024/01/25 04:22:07;;;;;;;47.20;6.70;;;5.20;99.90;;;;;;6250347;22;20008;-80
2024/01/25 04:24:33;;;;;;;45.33;5.63;;;5.20;99.90;;;;;;6225435;22;20012;-79
2024/01/25 04:26:59;;;;;;;37.78;6.50;;;5.20;99.90;;;;;;6277321;22;20074;-80
2024/01/25 04:29:25;;;;;;;44.40;6.38;;;5.20;99.90;;;;;;6250862;22;20333;-80
2024/01/25 04:31:51;;;;;;;43.22;6.85;;;5.10;99.90;;;;;;6277415;22;20012;-81
2024/01/25 04:34:16;;;;;;;45.65;6.07;;;5.10;99.90;;;;;;6250412;22;20004;-81
2024/01/25 04:36:43;;;;;;;42.15;6.10;;;5.10;99.90;;;;;;6250064;22;20050;-80
2024/01/25 04:39:08;;;;;;;56.13;6.20;;;5.10;99.90;;;;;;6277532;22;20310;-79
2024/01/25 04:41:34;;;;;;;51.92;6.78;;;5.00;99.90;;;;;;6277323;22;20149;-80
2024/01/25 04:43:59;;;;;;;45.75;6.30;;;5.00;99.90;;;;;;6250486;22;20087;-80
2024/01/25 04:46:26;;;;;;;42.95;7.28;;;4.90;99.90;;;;;;6250417;22;20046;-80
2024/01/25 04:48:52;;;;;;;35.83;6.22;;;4.90;99.90;;;;;;6224908;22;20016;-81
2024/01/25 04:51:19;;;;;;;51.85;6.93;;;4.90;99.90;;;;;;6250426;22;20018;-81
2024/01/25 04:53:45;;;;;;;42.55;6.15;;;4.90;99.90;;;;;;6277644;22;20068;-80
2024/01/25 04:56:11;;;;;;;48.08;6.80;;;4.90;99.90;;;;;;6250374;22;20018;-80
2024/01/25 04:58:36;;;;;;;41.22;7.88;;;4.80;99.90;;;;;;6250840;22;20007;-81
2024/01/25 05:01:02;;;;;;;38.67;5.25;;;4.80;99.90;;;;;;6250285;22;20043;-81
2024/01/25 05:03:28;;;;;;;45.38;6.88;;;4.80;99.90;;;;;;6251057;22;20019;-80
2024/01/25 05:05:53;;;;;;;42.25;6.63;;;4.70;99.90;;;;;;6277723;22;20092;-81
2024/01/25 05:08:19;;;;;;;45.92;7.13;;;4.70;99.90;;;;;;6277512;22;20073;-80
2024/01/25 05:10:45;;;;;;;53.78;6.55;;;4.70;99.90;;;;;;6250329;22;20018;-81
2024/01/25 05:13:10;;;;;;;43.08;6.93;;;4.70;99.90;;;;;;6250748;22;20012;-82
2024/01/25 05:15:36;;;;;;;52.67;7.32;;;4.70;99.90;;;;;;6250335;22;20027;-81
2024/01/25 05:18:02;;;;;;;41.03;6.70;;;4.70;99.90;;;;;;6250450;22;20020;-79
2024/01/25 05:20:36;;;;;;;64.40;8.35;;;4.60;99.90;;;;;;6277589;22;20007;-82
2024/01/25 05:23:03;;;;;;;53.03;6.72;;;4.60;99.90;;;;;;6250463;22;20045;-81
2024/01/25 05:25:29;;;;;;;46.45;6.15;;;4.60;99.90;;;;;;6250447;22;20012;-80
2024/01/25 05:27:55;;;;;;;51.15;7.10;;;4.60;99.90;;;;;;6277153;22;20358;-81
2024/01/25 05:30:22;;;;;;;46.08;6.05;;;4.60;99.90;;;;;;6278557;22;20015;-79
2024/01/25 05:32:49;;;;;;;49.53;6.68;;;4.60;99.90;;;;;;6251724;22;20015;-81
2024/01/25 05:35:15;;;;;;;43.40;6.03;;;4.60;99.90;;;;;;6279704;22;20011;-80
2024/01/25 05:37:42;;;;;;;40.97;5.60;;;4.60;99.90;;;;;;6279466;22;20310;-80
2024/01/25 05:40:09;;;;;;;49.45;5.65;;;4.60;99.90;;;;;;6252456;22;20081;-80
2024/01/25 05:42:35;;;;;;;50.70;7.82;;;4.60;99.90;;;;;;6279670;22;20012;-80
2024/01/25 05:45:03;;;;;;;48.40;7.03;;;4.50;99.90;;;;;;6252681;22;20387;-80
2024/01/25 05:47:30;;;;;;;56.42;6.95;;;4.50;99.90;;;;;;6253163;22;20050;-80
2024/01/25 05:49:56;;;;;;;58.47;6.43;;;4.50;99.90;;;;;;6279748;22;20003;-81
2024/01/25 05:52:23;;;;;;;57.95;7.38;;;4.50;99.90;;;;;;6252154;22;20337;-80
2024/01/25 05:54:52;;;;;;;67.90;7.70;;;4.50;99.90;;;;;;6279561;22;20020;-82
2024/01/25 05:57:19;;;;;;;44.45;7.28;;;4.40;99.90;;;;;;6279660;22;20039;-80
2024/01/25 05:59:44;;;;;;;54.50;7.30;;;4.40;99.90;;;;;;6279223;22;20012;-79
2024/01/25 06:02:10;;;;;;;51.85;7.38;;;4.40;99.90;;;;;;6252303;22;20138;-79
2024/01/25 06:04:36;;;;;;;53.67;7.75;;;4.30;99.90;;;;;;6252007;22;20015;-81
2024/01/25 06:07:02;;;;;;;41.25;7.22;;;4.30;99.90;;;;;;6279589;22;20354;-82
2024/01/25 06:09:28;;;;;;;50.63;6.30;;;4.30;99.90;;;;;;6279187;22;20510;-81
2024/01/25 06:11:54;;;;;;;45.92;6.47;;;4.30;99.90;;;;;;6279447;22;20011;-80
2024/01/25 06:14:20;;;;;;;55.60;6.60;;;4.30;99.90;;;;;;6279303;22;20007;-80
2024/01/25 06:16:46;;;;;;;57.92;7.93;;;4.30;99.90;;;;;;6251958;22;20023;-81
2024/01/25 06:19:11;;;;;;;52.45;6.40;;;4.30;99.90;;;;;;6252495;22;20008;-80
2024/01/25 06:21:37;;;;;;;52.83;7.45;;;4.20;99.90;;;;;;6252198;22;20020;-79
2024/01/25 06:24:07;;;;;;;47.53;6.30;;;4.30;99.90;;;;;;6252451;22;20035;-80
2024/01/25 06:26:33;;;;;;;41.42;5.65;;;4.20;99.90;;;;;;6251784;22;20404;-80
2024/01/25 06:28:59;;;;;;;51.67;6.85;;;4.30;99.90;;;;;;6278890;22;20044;-80
2024/01/25 06:31:25;;;;;;;57.45;7.63;;;4.20;99.90;;;;;;6278714;22;20030;-80
2024/01/25 06:33:52;;;;;;;56.85;7.55;;;4.20;99.90;;;;;;6251261;22;20043;-80
2024/01/25 06:36:24;;;;;;;46.55;6.03;;;4.20;99.90;;;;;;6251092;22;20012;-80
2024/01/25 06:38:50;;;;;;;41.50;6.15;;;4.20;99.90;;;;;;6251237;22;20027;-80
2024/01/25 06:41:16;;;;;;;46.17;6.47;;;4.20;99.90;;;;;;6250738;22;20448;-80
2024/01/25 06:43:42;;;;;;;47.08;7.03;;;4.10;99.90;;;;;;6251025;22;20034;-80
2024/01/25 06:46:08;;;;;;;41.97;5.95;;;4.20;99.90;;;;;;6251264;22;20020;-80
2024/01/25 06:48:34;;;;;;;43.88;5.53;;;4.10;99.90;;;;;;6225855;22;20049;-80
2024/01/25 06:51:01;;;;;;;56.33;6.68;;;4.10;99.90;;;;;;6251076;22;20318;-79
2024/01/25 06:53:27;;;;;;;41.53;6.90;;;4.10;99.90;;;;;;6278408;22;20012;-83
2024/01/25 06:55:53;;;;;;;45.47;6.65;;;4.10;99.90;;;;;;6278550;22;20078;-79
2024/01/25 06:58:18;;;;;;;50.30;6.30;;;4.10;99.90;;;;;;6251220;22;20119;-80
2024/01/25 07:00:46;;;;;;;53.80;6.93;;;4.10;99.90;;;;;;6277939;22;20389;-81
2024/01/25 07:03:12;;;;;;;47.42;6.45;;;4.10;99.90;;;;;;6251742;22;20047;-79
2024/01/25 07:05:38;;;;;;;63.60;8.27;;;4.00;99.90;;;;;;6250838;22;20023;-82
2024/01/25 07:08:04;;;;;;;53.08;7.35;;;4.10;99.90;;;;;;6250418;22;20019;-82
2024/01/25 07:10:30;;;;;;;48.13;6.95;;;4.10;99.90;;;;;;6277966;22;20007;-82
2024/01/25 07:12:56;;;;;;;52.40;6.28;;;4.10;99.90;;;;;;6250410;22;20345;-75
2024/01/25 07:15:21;;;;;;;64.50;8.25;;;4.10;99.90;;;;;;6250158;22;20014;-76
2024/01/25 07:17:47;;;;;;;59.80;7.13;;;4.10;99.90;;;;;;6277465;22;20022;-75
2024/01/25 07:20:13;;;;;;;56.95;8.60;;;4.10;99.90;;;;;;6250595;22;20082;-79
2024/01/25 07:22:40;;;;;;;51.47;6.30;;;4.10;99.90;;;;;;6277815;22;20015;-77
2024/01/25 07:25:06;;;;;;;52.97;7.20;;;4.20;99.90;;;;;;6250960;22;20019;-79
2024/01/25 07:27:32;;;;;;;54.00;6.88;;;4.20;99.90;;;;;;6277488;22;20018;-76
2024/01/25 07:29:58;;;;;;;61.88;8.45;;;4.10;99.90;;;;;;6250184;22;20012;-76
2024/01/25 07:32:24;;;;;;;60.35;9.25;;;4.10;99.90;;;;;;6277557;22;20031;-81
2024/01/25 07:34:50;;;;;;;63.35;11.00;;;4.10;99.90;;;;;;6277539;22;20019;-81
2024/01/25 07:37:18;;;;;;;57.28;12.02;;;4.10;99.90;;;;;;6251103;22;20011;-80
2024/01/25 07:39:44;;;;;;;66.18;11.93;;;4.10;99.90;;;;;;6250376;22;20487;-80
2024/01/25 07:42:10;;;;;;;51.95;11.02;;;4.00;99.90;;;;;;6250212;22;20050;-80
2024/01/25 07:44:35;;;;;;;59.47;12.07;;;4.10;99.90;;;;;;6277307;22;20047;-80
2024/01/25 07:47:02;;;;;;;64.97;12.00;;;4.00;99.90;;;;;;6277799;22;20008;-80
2024/01/25 07:49:27;;;;;;;56.20;9.00;;;4.00;99.90;;;;;;6250097;22;20027;-80
2024/01/25 07:51:53;;;;;;;65.07;8.35;;;4.10;99.90;;;;;;6277634;22;20007;-80
2024/01/25 07:54:18;;;;;;;59.10;8.85;;;4.10;99.90;;;;;;6250384;22;20400;-79
2024/01/25 07:56:44;;;;;;;37.90;6.63;;;4.10;99.90;;;;;;6250036;22;20010;-80
2024/01/25 07:59:10;;;;;;;58.05;7.32;;;4.10;99.90;;;;;;6250118;22;20395;-80
2024/01/25 08:01:35;;;;;;;54.45;7.43;;;4.10;99.90;;;;;;6277095;22;20015;-80
2024/01/25 08:04:03;;;;;;;55.92;7.03;;;4.20;99.90;;;;;;6250094;22;20349;-81
2024/01/25 08:06:28;;;;;;;49.47;7.93;;;4.20;99.90;;;;;;6224711;22;20016;-80
2024/01/25 08:08:54;;;;;;;59.20;6.68;;;4.20;99.90;;;;;;6250011;22;20100;-79
2024/01/25 08:11:20;;;;;;;58.25;7.57;;;4.20;99.90;;;;;;6250286;22;20012;-79
2024/01/25 08:13:47;;;;;;;50.72;7.20;;;4.20;99.90;;;;;;6250728;22;20016;-81
2024/01/25 08:16:13;;;;;;;56.67;8.15;;;4.30;99.90;;;;;;6251189;22;20014;-80
2024/01/25 08:18:40;;;;;;;63.97;9.05;;;4.30;99.90;;;;;;6277407;22;20034;-80
2024/01/25 08:21:05;;;;;;;49.10;8.85;;;4.30;99.90;;;;;;6277169;22;20012;-80
2024/01/25 08:23:34;;;;;;;47.97;8.90;;;4.30;99.90;;;;;;6277739;22;20109;-81
2024/01/25 08:26:00;;;;;;;57.75;9.48;;;4.40;99.90;;;;;;6277490;22;20016;-80
2024/01/25 08:28:25;;;;;;;69.53;11.55;;;4.30;99.90;;;;;;6249936;22;20093;-83
2024/01/25 08:30:52;;;;;;;66.25;11.95;;;4.40;99.90;;;;;;6277833;22;20069;-81
2024/01/25 08:33:17;;;;;;;68.28;12.77;;;4.40;99.90;;;;;;6250024;22;20011;-80
2024/01/25 08:35:43;;;;;;;67.25;10.57;;;4.40;99.90;;;;;;6278061;22;20015;-80
2024/01/25 08:38:09;;;;;;;43.75;9.18;;;4.40;99.90;;;;;;6277755;22;20460;-81
2024/01/25 08:40:34;;;;;;;55.85;7.97;;;4.40;99.90;;;;;;6278304;22;20011;-81
2024/01/25 08:43:00;;;;;;;57.13;7.22;;;4.50;99.90;;;;;;6277715;22;20075;-82
2024/01/25 08:45:26;;;;;;;52.60;8.50;;;4.50;99.90;;;;;;6250334;22;20007;-82
2024/01/25 08:47:52;;;;;;;45.00;7.10;;;4.60;99.90;;;;;;6247608;22;20015;-82
2024/01/25 08:50:18;;;;;;;41.88;5.50;;;4.60;99.90;;;;;;6249870;22;20008;-80
2024/01/25 08:52:43;;;;;;;50.42;7.07;;;4.70;99.90;;;;;;6276983;22;20043;-81
2024/01/25 08:55:09;;;;;;;52.70;7.82;;;4.70;99.90;;;;;;6277124;22;20012;-81
2024/01/25 08:57:35;;;;;;;48.90;6.75;;;4.80;99.90;;;;;;6277440;22;20017;-81
2024/01/25 09:00:02;;;;;;;43.58;6.38;;;4.80;99.90;;;;;;6276797;22;20007;-80
2024/01/25 09:02:29;;;;;;;51.58;5.90;;;4.90;99.90;;;;;;6249423;22;20083;-79
2024/01/25 09:04:55;;;;;;;37.38;5.43;;;4.90;99.90;;;;;;6249318;22;20019;-80
2024/01/25 09:07:22;;;;;;;46.58;6.55;;;5.10;99.90;;;;;;6277087;22;20011;-81
2024/01/25 09:09:48;;;;;;;53.00;7.35;;;5.10;99.90;;;;;;6249846;22;20019;-80
2024/01/25 09:12:15;;;;;;;44.67;6.60;;;5.20;99.90;;;;;;6276792;22;20035;-80
2024/01/25 09:14:42;;;;;;;48.15;6.78;;;5.30;99.90;;;;;;6277198;22;20007;-81
2024/01/25 09:17:09;;;;;;;50.00;7.35;;;5.40;99.90;;;;;;6249571;22;20008;-81
2024/01/25 09:19:35;;;;;;;48.65;7.97;;;5.50;99.90;;;;;;6277184;22;20015;-81
2024/01/25 09:22:04;;;;;;;52.47;7.50;;;5.50;99.90;;;;;;6249752;22;20016;-82
2024/01/25 09:24:35;;;;;;;42.10;6.95;;;5.60;99.90;;;;;;6276948;22;20012;-81
2024/01/25 09:27:02;;;;;;;56.45;7.82;;;5.50;99.90;;;;;;6249441;22;20031;-81
2024/01/25 09:29:28;;;;;;;47.92;6.85;;;5.50;99.90;;;;;;6249664;22;20011;-81
2024/01/25 09:31:54;;;;;;;39.72;6.60;;;5.60;99.90;;;;;;6249452;22;20022;-80
2024/01/25 09:34:21;;;;;;;45.47;8.05;;;5.60;99.90;;;;;;6276854;22;20039;-80
2024/01/25 09:36:47;;;;;;;45.20;7.07;;;5.50;99.90;;;;;;6249668;22;20089;-81
2024/01/25 09:39:14;;;;;;;58.67;7.82;;;5.60;99.90;;;;;;6250545;22;20050;-81
2024/01/25 09:41:40;;;;;;;50.88;7.78;;;5.60;99.90;;;;;;6276725;22;20018;-80
2024/01/25 09:44:08;;;;;;;41.58;6.70;;;5.60;99.90;;;;;;6249563;22;20015;-81
2024/01/25 09:46:35;;;;;;;47.35;6.70;;;5.60;99.90;;;;;;6249469;22;20019;-81
2024/01/25 09:49:01;;;;;;;45.20;7.80;;;5.70;99.90;;;;;;6276557;22;20011;-80
2024/01/25 09:51:33;;;;;;;46.80;7.93;;;5.70;99.90;;;;;;6276535;22;20014;-81
2024/01/25 09:54:00;;;;;;;52.17;7.47;;;5.80;99.90;;;;;;6249790;22;20026;-81
2024/01/25 09:56:29;;;;;;;49.97;7.30;;;5.90;99.90;;;;;;6276961;22;20075;-80
2024/01/25 09:58:55;;;;;;;46.00;8.32;;;5.90;99.90;;;;;;6249979;22;20016;-80
2024/01/25 10:01:22;;;;;;;49.53;8.82;;;6.10;99.90;;;;;;6276489;22;20342;-80
2024/01/25 10:03:47;;;;;;;45.50;7.45;;;6.20;99.90;;;;;;6250294;22;20015;-81
2024/01/25 10:06:14;;;;;;;46.83;8.80;;;6.30;99.90;;;;;;6249519;22;20042;-79
2024/01/25 10:08:40;;;;;;;49.60;8.27;;;6.40;99.90;;;;;;6276606;22;20012;-79
2024/01/25 10:11:08;;;;;;;42.92;8.77;;;6.40;99.90;;;;;;6224227;22;20453;-81
2024/01/25 10:13:41;;;;;;;35.70;8.73;;;6.40;99.90;;;;;;6224922;22;20393;-80
2024/01/25 10:16:10;;;;;;;45.78;9.27;;;6.40;99.90;;;;;;6277384;22;20008;-81
2024/01/25 10:18:36;;;;;;;54.47;12.50;;;6.50;99.90;;;;;;6278929;22;20018;-79
2024/01/25 10:21:03;;;;;;;59.88;12.98;;;6.60;99.90;;;;;;6251258;22;20333;-81
2024/01/25 10:23:29;;;;;;;54.58;14.23;;;6.70;99.90;;;;;;6278849;22;20015;-80
2024/01/25 10:25:56;;;;;;;60.38;12.68;;;6.70;99.90;;;;;;6278319;22;20334;-80
2024/01/25 10:28:25;;;;;;;65.35;14.13;;;6.70;99.90;;;;;;6250979;22;20022;-81
2024/01/25 10:30:51;;;;;;;56.55;13.30;;;6.80;99.90;;;;;;6278617;22;20298;-79
2024/01/25 10:33:18;;;;;;;53.30;11.88;;;6.90;99.90;;;;;;6251304;22;20019;-82
2024/01/25 10:35:49;;;;;;;49.85;12.52;;;6.70;99.90;;;;;;6278652;22;20310;-80
2024/01/25 10:38:17;;;;;;;64.07;13.68;;;6.70;99.90;;;;;;6278748;22;20015;-81
2024/01/25 10:40:44;;;;;;;54.63;12.82;;;6.80;99.90;;;;;;6251306;22;20012;-81
2024/01/25 10:43:10;;;;;;;44.47;10.82;;;7.00;99.90;;;;;;6251681;22;20011;-81
2024/01/25 10:45:36;;;;;;;48.05;10.55;;;7.00;99.90;;;;;;6278807;22;20392;-81
2024/01/25 10:48:03;;;;;;;50.25;10.93;;;6.90;99.90;;;;;;6251233;22;20062;-81
2024/01/25 10:50:28;;;;;;;53.90;9.93;;;6.90;99.90;;;;;;6226848;22;20468;-79
2024/01/25 10:52:55;;;;;;;53.78;10.60;;;6.90;99.90;;;;;;6252819;22;20015;-81
2024/01/25 10:55:21;;;;;;;42.50;10.32;;;6.90;99.90;;;;;;6257304;22;20061;-81
2024/01/25 10:57:47;;;;;;;46.35;10.35;;;6.90;99.90;;;;;;6260351;22;20027;-79
2024/01/25 11:00:15;;;;;;;46.42;10.10;;;6.90;99.90;;;;;;6289102;22;20134;-81
2024/01/25 11:02:42;;;;;;;43.85;9.82;;;6.90;99.90;;;;;;6260359;22;20015;-79
2024/01/25 11:05:15;;;;;;;49.60;10.35;;;7.00;99.90;;;;;;6286792;22;20518;-79
2024/01/25 11:07:45;;;;;;;40.88;9.27;;;7.10;99.90;;;;;;6283664;22;20008;-79
2024/01/25 11:10:19;;;;;;;45.55;9.65;;;7.20;99.90;;;;;;6281901;22;20012;-79
2024/01/25 11:12:56;;;;;;;44.17;9.15;;;7.20;99.90;;;;;;6280285;22;20008;-81
2024/01/25 11:15:33;;;;;;;45.47;10.85;;;7.30;99.90;;;;;;6278694;22;20388;-80
2024/01/25 11:18:01;;;;;;;46.13;10.55;;;7.30;99.90;;;;;;6250970;22;20090;-74
2024/01/25 11:20:29;;;;;;;51.78;11.38;;;7.40;99.90;;;;;;6277552;22;20023;-81
2024/01/25 11:23:02;;;;;;;60.00;12.75;;;7.50;99.90;;;;;;6277774;22;20441;-80
2024/01/25 11:25:29;;;;;;;50.55;10.88;;;7.60;99.90;;;;;;6277516;22;20090;-79
2024/01/25 11:28:01;;;;;;;61.78;12.10;;;7.60;99.90;;;;;;6277983;22;20086;-81
2024/01/25 11:30:30;;;;;;;64.18;12.60;;;7.80;99.90;;;;;;6251826;22;20041;-83
2024/01/25 11:32:56;;;;;;;59.92;11.02;;;8.00;99.90;;;;;;6277721;22;20015;-83
2024/01/25 11:35:22;;;;;;;46.00;10.25;;;8.30;99.90;;;;;;6250477;22;20015;-80
2024/01/25 11:37:49;;;;;;;47.70;9.85;;;8.50;99.90;;;;;;6277626;22;20321;-80
2024/01/25 11:40:16;;;;;;;50.83;10.82;;;8.50;99.90;;;;;;6277022;22;20039;-82
2024/01/25 11:42:43;;;;;;;49.03;9.90;;;8.30;99.90;;;;;;6277211;22;20012;-83
2024/01/25 11:45:14;;;;;;;54.38;10.52;;;8.30;99.90;;;;;;6278155;22;20417;-81
2024/01/25 11:47:41;;;;;;;43.35;8.82;;;8.10;99.90;;;;;;6277257;22;20019;-82
2024/01/25 11:50:08;;;;;;;47.42;8.57;;;8.10;99.90;;;;;;6250138;22;20449;-82
2024/01/25 11:52:35;;;;;;;46.85;8.95;;;8.00;99.90;;;;;;6277674;22;20003;-84
2024/01/25 11:55:05;;;;;;;41.33;8.65;;;8.00;99.90;;;;;;6277637;22;20307;-82
2024/01/25 11:57:43;;;;;;;31.33;7.40;;;8.00;99.90;;;;;;6278167;22;20004;-82
2024/01/25 12:00:13;;;;;;;46.78;8.32;;;8.00;99.90;;;;;;6277568;22;20015;-83
2024/01/25 12:02:40;;;;;;;42.92;7.70;;;7.90;99.90;;;;;;6250201;22;20086;-80
2024/01/25 12:05:06;;;;;;;31.40;6.97;;;8.00;99.90;;;;;;6224856;22;20008;-77
2024/01/25 12:07:32;;;;;;;37.20;7.50;;;7.90;99.90;;;;;;6277723;22;20003;-89
2024/01/25 12:10:05;;;;;;;48.50;8.30;;;7.90;99.90;;;;;;6277647;22;20018;-78
2024/01/25 12:12:32;;;;;;;38.67;8.90;;;7.80;99.90;;;;;;6250579;22;20012;-71
2024/01/25 12:15:05;;;;;;;39.22;8.93;;;7.80;99.90;;;;;;6277873;22;20337;-73
2024/01/25 12:17:32;;;;;;;50.85;9.50;;;7.90;99.90;;;;;;6278408;22;20086;-85
2024/01/25 12:19:59;;;;;;;39.13;10.40;;;7.80;99.90;;;;;;6278619;22;20008;-82
2024/01/25 12:22:29;;;;;;;42.85;8.88;;;7.80;99.90;;;;;;6251046;22;20020;-81
2024/01/25 12:24:58;;;;;;;41.53;9.25;;;7.90;99.90;;;;;;6277512;22;20008;-86
2024/01/25 12:27:25;;;;;;;44.72;9.30;;;7.90;99.90;;;;;;6277306;22;20018;-81
2024/01/25 12:29:56;;;;;;;41.92;8.55;;;8.00;99.90;;;;;;6277291;22;20012;-85
2024/01/25 12:32:22;;;;;;;52.47;8.43;;;8.10;99.90;;;;;;6250375;22;20038;-85
2024/01/25 12:35:01;;;;;;;41.55;8.65;;;8.30;99.90;;;;;;6277667;22;20012;-84
2024/01/25 12:37:27;;;;;;;45.40;8.50;;;8.40;99.90;;;;;;6250820;22;20016;-86
2024/01/25 12:39:53;;;;;;;42.33;8.98;;;8.60;99.90;;;;;;6277437;22;20076;-85
2024/01/25 12:42:20;;;;;;;43.47;8.82;;;8.70;99.90;;;;;;6277195;22;20015;-74
2024/01/25 12:44:48;;;;;;;32.58;8.05;;;8.60;99.90;;;;;;6277991;22;20295;-84
2024/01/25 12:47:14;;;;;;;39.38;9.18;;;8.60;99.90;;;;;;6251070;22;20087;-85
2024/01/25 12:49:44;;;;;;;42.78;9.52;;;8.50;99.90;;;;;;6250680;22;20039;-86
2024/01/25 12:52:11;;;;;;;39.78;8.10;;;8.50;99.90;;;;;;6277151;22;20003;-85
2024/01/25 12:54:37;;;;;;;42.75;8.85;;;8.50;99.90;;;;;;6225758;22;20017;-85
2024/01/25 12:57:07;;;;;;;37.17;9.48;;;8.40;99.90;;;;;;6277892;22;20011;-86
2024/01/25 12:59:34;;;;;;;28.23;6.13;;;8.40;99.90;;;;;;6250914;22;20016;-86
2024/01/25 13:02:00;;;;;;;40.47;8.05;;;8.40;99.90;;;;;;6249963;22;20045;-88
2024/01/25 13:04:25;;;;;;;39.22;9.05;;;8.30;99.90;;;;;;6250067;22;20020;-83
2024/01/25 13:06:55;;;;;;;35.47;7.72;;;8.30;99.90;;;;;;6249757;22;20069;-82
2024/01/25 13:09:24;;;;;;;43.45;6.90;;;8.30;99.90;;;;;;6276795;22;20015;-81
2024/01/25 13:11:52;;;;;;;35.22;6.25;;;8.30;99.90;;;;;;6276901;22;20433;-81
2024/01/25 13:14:18;;;;;;;38.35;6.75;;;8.30;99.90;;;;;;6277578;22;20065;-80
2024/01/25 13:16:44;;;;;;;40.40;6.57;;;8.30;99.90;;;;;;6276784;22;20019;-81
2024/01/25 13:19:11;;;;;;;32.63;6.38;;;8.30;99.90;;;;;;6277131;22;20016;-82
2024/01/25 13:21:37;;;;;;;34.25;6.00;;;8.30;99.90;;;;;;6278170;22;20079;-82
2024/01/25 13:24:03;;;;;;;40.78;7.28;;;8.40;99.90;;;;;;6277056;22;20070;-82
2024/01/25 13:26:28;;;;;;;32.95;6.72;;;8.40;99.90;;;;;;6249452;22;20023;-81
2024/01/25 13:28:54;;;;;;;30.45;5.13;;;8.50;99.90;;;;;;6276862;22;20429;-81
2024/01/25 13:31:21;;;;;;;34.20;6.32;;;8.50;99.90;;;;;;6276572;22;20011;-81
2024/01/25 13:33:46;;;;;;;31.33;5.15;;;8.50;99.90;;;;;;6276858;22;20071;-81
2024/01/25 13:36:14;;;;;;;42.13;6.35;;;8.50;99.90;;;;;;6277058;22;20429;-81
2024/01/25 13:38:42;;;;;;;29.30;5.13;;;8.60;99.90;;;;;;6276992;22;20079;-82
2024/01/25 13:41:08;;;;;;;36.05;5.50;;;8.60;99.90;;;;;;6276788;22;20445;-81
2024/01/25 13:43:33;;;;;;;39.47;6.28;;;8.50;99.90;;;;;;6224514;22;20016;-82
2024/01/25 13:45:59;;;;;;;41.10;7.25;;;8.50;99.90;;;;;;6277441;22;20015;-81
2024/01/25 13:48:24;;;;;;;30.15;5.25;;;8.50;99.90;;;;;;6276819;22;20015;-81
2024/01/25 13:50:50;;;;;;;32.40;5.05;;;8.50;99.90;;;;;;6250875;22;20019;-82
2024/01/25 13:53:17;;;;;;;28.80;6.28;;;8.50;99.90;;;;;;6278886;22;20016;-82
2024/01/25 13:55:43;;;;;;;37.45;6.40;;;8.40;99.90;;;;;;6278311;22;20019;-82
2024/01/25 13:58:09;;;;;;;29.42;4.85;;;8.40;99.90;;;;;;6278671;22;20142;-82
2024/01/25 14:00:35;;;;;;;33.58;5.30;;;8.40;99.90;;;;;;6278399;22;20318;-82
2024/01/25 14:03:01;;;;;;;34.95;5.50;;;8.40;99.90;;;;;;6251270;22;20045;-82
2024/01/25 14:05:26;;;;;;;32.70;5.53;;;8.40;99.90;;;;;;6278183;22;20011;-81
2024/01/25 14:07:52;;;;;;;39.60;7.22;;;8.40;99.90;;;;;;6252160;22;20023;-81
2024/01/25 14:10:19;;;;;;;31.98;5.70;;;8.30;99.90;;;;;;6278501;22;20015;-83
2024/01/25 14:12:45;;;;;;;25.70;4.93;;;8.30;99.90;;;;;;6278384;22;20470;-82
2024/01/25 14:15:11;;;;;;;33.67;7.28;;;8.30;99.90;;;;;;6278317;22;20012;-81
2024/01/25 14:17:38;;;;;;;30.90;6.50;;;8.30;99.90;;;;;;6251588;22;20011;-80
2024/01/25 14:20:04;;;;;;;38.22;5.53;;;8.30;99.90;;;;;;6278714;22;20011;-81
2024/01/25 14:22:30;;;;;;;31.75;6.25;;;8.30;99.90;;;;;;6278708;22;20012;-82
2024/01/25 14:24:56;;;;;;;28.70;4.70;;;8.30;99.90;;;;;;6278869;22;20027;-81
2024/01/25 14:27:22;;;;;;;36.58;5.60;;;8.30;99.90;;;;;;6279308;22;20008;-81
2024/01/25 14:29:48;;;;;;;34.30;5.68;;;8.20;99.90;;;;;;6279538;22;20082;-84
2024/01/25 14:32:24;;;;;;;28.58;5.53;;;8.20;99.90;;;;;;6279515;22;20314;-81
2024/01/25 14:34:50;;;;;;;28.35;4.68;;;8.20;99.90;;;;;;6278910;22;20011;-82
2024/01/25 14:37:16;;;;;;;31.50;5.43;;;8.20;99.90;;;;;;6279372;22;20019;-82
2024/01/25 14:39:42;;;;;;;37.55;6.88;;;8.10;99.90;;;;;;6279146;22;20093;-82
2024/01/25 14:42:11;;;;;;;34.08;4.93;;;8.10;99.90;;;;;;6251734;22;20020;-83
2024/01/25 14:44:38;;;;;;;32.08;5.78;;;8.10;99.90;;;;;;6279155;22;20026;-82
2024/01/25 14:47:04;;;;;;;30.48;6.53;;;8.10;99.90;;;;;;6251400;22;20020;-82
2024/01/25 14:49:29;;;;;;;34.50;5.63;;;8.00;99.90;;;;;;6251279;22;20090;-82
2024/01/25 14:51:55;;;;;;;36.67;6.43;;;8.10;99.90;;;;;;6251225;22;20087;-81
2024/01/25 14:54:21;;;;;;;44.55;6.30;;;8.00;99.90;;;;;;6278859;22;20008;-83
2024/01/25 14:56:49;;;;;;;29.17;5.30;;;8.10;99.90;;;;;;6278546;22;20011;-81
2024/01/25 14:59:16;;;;;;;49.67;7.95;;;8.00;99.90;;;;;;6278705;22;20019;-82
2024/01/25 15:01:42;;;;;;;33.85;7.10;;;8.10;99.90;;;;;;6250892;22;20505;-82
2024/01/25 15:04:08;;;;;;;43.75;8.43;;;8.00;99.90;;;;;;6278367;22;20050;-81
2024/01/25 15:06:34;;;;;;;34.92;7.50;;;8.00;99.90;;;;;;6278225;22;20329;-82
2024/01/25 15:09:00;;;;;;;30.30;6.40;;;8.00;99.90;;;;;;6251233;22;20069;-82
2024/01/25 15:11:26;;;;;;;34.15;6.65;;;8.00;99.90;;;;;;6278570;22;20680;-81
2024/01/25 15:13:52;;;;;;;33.63;6.35;;;8.00;99.90;;;;;;6278367;22;20038;-82
2024/01/25 15:16:17;;;;;;;34.55;7.10;;;7.90;99.90;;;;;;6226917;22;20414;-84
2024/01/25 15:18:43;;;;;;;41.22;7.53;;;7.90;99.90;;;;;;6279023;22;20008;-81
2024/01/25 15:21:09;;;;;;;41.35;8.63;;;7.90;99.90;;;;;;6251159;22;20007;-82
2024/01/25 15:23:34;;;;;;;42.17;9.13;;;7.90;99.90;;;;;;6278627;22;20372;-81
2024/01/25 15:26:03;;;;;;;48.53;9.82;;;7.90;99.90;;;;;;6278071;22;20385;-82
2024/01/25 15:28:29;;;;;;;36.03;9.13;;;8.00;99.90;;;;;;6226080;22;20485;-82
2024/01/25 15:30:55;;;;;;;45.08;9.45;;;7.90;99.90;;;;;;6278377;22;20097;-82
2024/01/25 15:33:20;;;;;;;33.47;9.13;;;7.90;99.90;;;;;;6251047;22;20016;-80
2024/01/25 15:35:46;;;;;;;47.45;8.70;;;7.90;99.90;;;;;;6278548;22;20389;-80
2024/01/25 15:38:15;;;;;;;31.20;6.53;;;8.00;99.90;;;;;;6251201;22;20026;-81
2024/01/25 15:40:41;;;;;;;39.90;7.28;;;8.00;99.90;;;;;;6278315;22;20077;-80
2024/01/25 15:43:07;;;;;;;31.85;6.18;;;8.00;99.90;;;;;;6250841;22;20345;-83
2024/01/25 15:45:33;;;;;;;39.15;7.45;;;8.00;99.90;;;;;;6278055;22;20007;-82
2024/01/25 15:47:59;;;;;;;38.70;6.82;;;8.00;99.90;;;;;;6278485;22;20016;-82
2024/01/25 15:50:26;;;;;;;35.88;6.60;;;8.00;99.90;;;;;;6278217;22;20481;-81
2024/01/25 15:52:53;;;;;;;34.33;5.68;;;8.00;99.90;;;;;;6278160;22;20004;-82
2024/01/25 15:55:19;;;;;;;34.70;6.85;;;8.00;99.90;;;;;;6278823;22;20078;-82
2024/01/25 15:57:45;;;;;;;40.70;6.60;;;8.00;99.90;;;;;;6225127;22;20023;-81
2024/01/25 16:00:12;;;;;;;28.92;5.30;;;8.00;99.90;;;;;;6278858;22;20015;-81
2024/01/25 16:02:38;;;;;;;30.08;5.40;;;8.00;99.90;;;;;;6277729;22;20043;-83
2024/01/25 16:05:07;;;;;;;31.33;4.85;;;8.00;99.90;;;;;;6276601;22;20016;-81
2024/01/25 16:07:32;;;;;;;32.03;6.35;;;8.00;99.90;;;;;;6277902;22;20379;-82
2024/01/25 16:09:58;;;;;;;34.17;5.88;;;8.00;99.90;;;;;;6277884;22;20008;-81
2024/01/25 16:12:24;;;;;;;35.78;5.78;;;8.00;99.90;;;;;;6278222;22;20046;-81
2024/01/25 16:14:55;;;;;;;30.08;5.60;;;8.00;99.90;;;;;;6277569;22;20004;-81
2024/01/25 16:17:21;;;;;;;33.22;6.22;;;8.00;99.90;;;;;;6278172;22;20015;-81
2024/01/25 16:19:47;;;;;;;33.58;5.90;;;7.90;99.90;;;;;;6224939;22;20027;-80
2024/01/25 16:22:14;;;;;;;30.92;6.20;;;8.00;99.90;;;;;;6250350;22;20377;-81
2024/01/25 16:24:40;;;;;;;32.40;6.65;;;7.90;99.90;;;;;;6277462;22;20418;-80
2024/01/25 16:27:05;;;;;;;32.65;5.18;;;8.00;99.90;;;;;;6277575;22;20054;-82
2024/01/25 16:29:31;;;;;;;31.20;6.70;;;7.90;99.90;;;;;;6279179;22;20031;-82
2024/01/25 16:31:57;;;;;;;36.97;6.57;;;8.00;99.90;;;;;;6280736;22;20400;-82
2024/01/25 16:34:23;;;;;;;31.17;6.47;;;7.90;99.90;;;;;;6283058;22;20035;-81
2024/01/25 16:36:49;;;;;;;30.30;7.10;;;7.90;99.90;;;;;;6294118;22;20012;-82
2024/01/25 16:39:15;;;;;;;36.72;7.63;;;7.90;99.90;;;;;;6299809;22;20124;-82
2024/01/25 16:41:41;;;;;;;28.00;6.15;;;8.00;99.90;;;;;;6227322;22;20323;-82
2024/01/25 16:44:07;;;;;;;35.10;6.53;;;7.90;99.90;;;;;;6249836;22;20027;-83